Terminal Aerodrome Forecast
Issued by NWS Cleveland, OH

Home | Current Version | Previous Version | Graphics & Text | Print | Product List | Glossary On
Versions: 1 2 3 4 5 6 7 8 9 10 11 12 13 14 15
971
FTUS41 KCLE 152320
TAFMFD
TAF
KMFD 152320Z 1600/1624 35004KT P6SM SCT200
     FM160600 00000KT 4SM BR SCT200
     FM160800 00000KT 2SM BR SCT200
     FM160900 00000KT 1 1/2SM BR SCT150
     FM161300 VRB03KT 4SM BR SCT150
     FM161400 09004KT P6SM SCT150
     FM161800 07004KT P6SM SCT050=

USA.gov is the U.S. government's official web portal to all federal, state and local government web resources and services.